sensor_id;sensor_type;location;lat;lon;timestamp;P1;durP1;ratioP1;P2;durP2;ratioP2
77888;SDS011;67082;41.704;44.768;2023-11-19T00:00:27;12.75;;;6.07;;
77888;SDS011;67082;41.704;44.768;2023-11-19T00:03:15;13.20;;;5.45;;
77888;SDS011;67082;41.704;44.768;2023-11-19T00:05:44;14.07;;;6.32;;
77888;SDS011;67082;41.704;44.768;2023-11-19T00:08:15;12.77;;;6.07;;
77888;SDS011;67082;41.704;44.768;2023-11-19T00:10:43;15.43;;;6.70;;
77888;SDS011;67082;41.704;44.768;2023-11-19T00:13:11;16.42;;;7.35;;
77888;SDS011;67082;41.704;44.768;2023-11-19T00:15:40;17.00;;;7.25;;
77888;SDS011;67082;41.704;44.768;2023-11-19T00:18:10;15.40;;;7.55;;
77888;SDS011;67082;41.704;44.768;2023-11-19T00:20:39;16.90;;;6.60;;
77888;SDS011;67082;41.704;44.768;2023-11-19T00:23:06;20.20;;;6.80;;
77888;SDS011;67082;41.704;44.768;2023-11-19T00:25:35;11.15;;;6.32;;
77888;SDS011;67082;41.704;44.768;2023-11-19T00:28:03;13.00;;;6.25;;
77888;SDS011;67082;41.704;44.768;2023-11-19T00:30:31;15.40;;;6.97;;
77888;SDS011;67082;41.704;44.768;2023-11-19T00:32:59;17.52;;;7.07;;
77888;SDS011;67082;41.704;44.768;2023-11-19T00:35:30;12.70;;;5.90;;
77888;SDS011;67082;41.704;44.768;2023-11-19T00:37:59;15.52;;;6.82;;
77888;SDS011;67082;41.704;44.768;2023-11-19T00:40:28;18.08;;;6.75;;
77888;SDS011;67082;41.704;44.768;2023-11-19T00:42:56;18.38;;;7.30;;
77888;SDS011;67082;41.704;44.768;2023-11-19T00:45:27;21.67;;;9.90;;
77888;SDS011;67082;41.704;44.768;2023-11-19T00:47:55;21.75;;;9.65;;
77888;SDS011;67082;41.704;44.768;2023-11-19T00:50:23;24.13;;;10.07;;
77888;SDS011;67082;41.704;44.768;2023-11-19T00:52:51;19.60;;;8.48;;
77888;SDS011;67082;41.704;44.768;2023-11-19T00:55:19;16.30;;;7.85;;
77888;SDS011;67082;41.704;44.768;2023-11-19T00:57:47;22.05;;;8.00;;
77888;SDS011;67082;41.704;44.768;2023-11-19T01:00:16;17.83;;;8.27;;
77888;SDS011;67082;41.704;44.768;2023-11-19T01:02:47;21.80;;;8.43;;
77888;SDS011;67082;41.704;44.768;2023-11-19T01:05:22;18.65;;;8.00;;
77888;SDS011;67082;41.704;44.768;2023-11-19T01:07:51;19.55;;;7.60;;
77888;SDS011;67082;41.704;44.768;2023-11-19T01:10:22;15.98;;;7.35;;
77888;SDS011;67082;41.704;44.768;2023-11-19T01:12:51;17.52;;;7.68;;
77888;SDS011;67082;41.704;44.768;2023-11-19T01:15:21;12.98;;;6.75;;
77888;SDS011;67082;41.704;44.768;2023-11-19T01:17:50;14.38;;;6.43;;
77888;SDS011;67082;41.704;44.768;2023-11-19T01:20:20;19.45;;;8.35;;
77888;SDS011;67082;41.704;44.768;2023-11-19T01:22:49;20.25;;;7.78;;
77888;SDS011;67082;41.704;44.768;2023-11-19T01:25:17;18.38;;;7.50;;
77888;SDS011;67082;41.704;44.768;2023-11-19T01:27:48;16.02;;;7.30;;
77888;SDS011;67082;41.704;44.768;2023-11-19T01:30:19;13.77;;;6.47;;
77888;SDS011;67082;41.704;44.768;2023-11-19T01:32:49;12.27;;;6.05;;
77888;SDS011;67082;41.704;44.768;2023-11-19T01:35:17;17.33;;;6.13;;
77888;SDS011;67082;41.704;44.768;2023-11-19T01:37:45;10.98;;;5.65;;
77888;SDS011;67082;41.704;44.768;2023-11-19T01:40:14;12.30;;;5.30;;
77888;SDS011;67082;41.704;44.768;2023-11-19T01:42:43;9.48;;;4.45;;
77888;SDS011;67082;41.704;44.768;2023-11-19T01:45:16;10.57;;;5.13;;
77888;SDS011;67082;41.704;44.768;2023-11-19T01:47:55;10.00;;;4.97;;
77888;SDS011;67082;41.704;44.768;2023-11-19T01:50:23;10.05;;;5.05;;
77888;SDS011;67082;41.704;44.768;2023-11-19T01:52:53;12.48;;;5.55;;
77888;SDS011;67082;41.704;44.768;2023-11-19T01:55:22;13.63;;;5.30;;
77888;SDS011;67082;41.704;44.768;2023-11-19T01:57:51;8.25;;;4.28;;
77888;SDS011;67082;41.704;44.768;2023-11-19T02:00:24;11.10;;;5.05;;
77888;SDS011;67082;41.704;44.768;2023-11-19T02:02:52;7.95;;;4.30;;
77888;SDS011;67082;41.704;44.768;2023-11-19T02:05:22;8.27;;;3.95;;
77888;SDS011;67082;41.704;44.768;2023-11-19T02:07:50;9.18;;;3.97;;
77888;SDS011;67082;41.704;44.768;2023-11-19T02:10:21;8.63;;;3.50;;
77888;SDS011;67082;41.704;44.768;2023-11-19T02:12:52;6.97;;;3.35;;
77888;SDS011;67082;41.704;44.768;2023-11-19T02:15:32;8.18;;;3.22;;
77888;SDS011;67082;41.704;44.768;2023-11-19T02:20:59;6.38;;;2.90;;
77888;SDS011;67082;41.704;44.768;2023-11-19T02:23:27;7.03;;;2.90;;
77888;SDS011;67082;41.704;44.768;2023-11-19T02:26:02;6.40;;;3.17;;
77888;SDS011;67082;41.704;44.768;2023-11-19T02:28:31;6.47;;;2.90;;
77888;SDS011;67082;41.704;44.768;2023-11-19T02:31:01;4.93;;;2.70;;
77888;SDS011;67082;41.704;44.768;2023-11-19T02:33:32;6.70;;;3.15;;
77888;SDS011;67082;41.704;44.768;2023-11-19T02:36:00;6.55;;;2.90;;
77888;SDS011;67082;41.704;44.768;2023-11-19T02:38:31;6.65;;;3.00;;
77888;SDS011;67082;41.704;44.768;2023-11-19T02:40:59;7.63;;;3.00;;
77888;SDS011;67082;41.704;44.768;2023-11-19T02:43:29;7.13;;;2.90;;
77888;SDS011;67082;41.704;44.768;2023-11-19T02:46:02;5.65;;;3.03;;
77888;SDS011;67082;41.704;44.768;2023-11-19T02:48:37;5.18;;;2.75;;
77888;SDS011;67082;41.704;44.768;2023-11-19T02:51:06;4.60;;;2.28;;
77888;SDS011;67082;41.704;44.768;2023-11-19T02:53:37;6.60;;;3.00;;
77888;SDS011;67082;41.704;44.768;2023-11-19T02:56:08;4.95;;;2.78;;
77888;SDS011;67082;41.704;44.768;2023-11-19T02:58:54;4.70;;;2.63;;
77888;SDS011;67082;41.704;44.768;2023-11-19T03:01:23;5.75;;;3.25;;
77888;SDS011;67082;41.704;44.768;2023-11-19T03:03:58;5.38;;;2.95;;
77888;SDS011;67082;41.704;44.768;2023-11-19T03:06:30;6.13;;;2.80;;
77888;SDS011;67082;41.704;44.768;2023-11-19T03:08:58;5.88;;;2.88;;
77888;SDS011;67082;41.704;44.768;2023-11-19T03:11:26;7.55;;;2.72;;
77888;SDS011;67082;41.704;44.768;2023-11-19T03:13:54;6.78;;;3.22;;
77888;SDS011;67082;41.704;44.768;2023-11-19T03:16:22;9.40;;;2.90;;
77888;SDS011;67082;41.704;44.768;2023-11-19T03:18:50;7.82;;;3.30;;
77888;SDS011;67082;41.704;44.768;2023-11-19T03:21:19;6.32;;;3.08;;
77888;SDS011;67082;41.704;44.768;2023-11-19T03:23:47;6.97;;;2.60;;
77888;SDS011;67082;41.704;44.768;2023-11-19T03:26:16;5.25;;;2.65;;
77888;SDS011;67082;41.704;44.768;2023-11-19T03:28:44;7.18;;;2.58;;
77888;SDS011;67082;41.704;44.768;2023-11-19T03:31:12;5.07;;;2.58;;
77888;SDS011;67082;41.704;44.768;2023-11-19T03:33:42;5.28;;;2.60;;
77888;SDS011;67082;41.704;44.768;2023-11-19T03:36:10;5.93;;;2.55;;
77888;SDS011;67082;41.704;44.768;2023-11-19T03:38:40;5.28;;;2.72;;
77888;SDS011;67082;41.704;44.768;2023-11-19T03:41:11;5.30;;;2.35;;
77888;SDS011;67082;41.704;44.768;2023-11-19T03:43:40;4.78;;;2.47;;
77888;SDS011;67082;41.704;44.768;2023-11-19T03:46:21;4.72;;;2.05;;
77888;SDS011;67082;41.704;44.768;2023-11-19T03:48:50;3.85;;;2.33;;
77888;SDS011;67082;41.704;44.768;2023-11-19T03:51:18;3.63;;;2.03;;
77888;SDS011;67082;41.704;44.768;2023-11-19T03:53:46;5.07;;;2.10;;
77888;SDS011;67082;41.704;44.768;2023-11-19T03:56:14;4.43;;;2.15;;
77888;SDS011;67082;41.704;44.768;2023-11-19T03:58:42;4.88;;;2.05;;
77888;SDS011;67082;41.704;44.768;2023-11-19T04:01:11;5.10;;;2.20;;
77888;SDS011;67082;41.704;44.768;2023-11-19T04:03:42;5.85;;;2.20;;
77888;SDS011;67082;41.704;44.768;2023-11-19T04:06:14;3.92;;;2.10;;
77888;SDS011;67082;41.704;44.768;2023-11-19T04:08:42;7.28;;;2.00;;
77888;SDS011;67082;41.704;44.768;2023-11-19T04:11:11;6.38;;;2.40;;
77888;SDS011;67082;41.704;44.768;2023-11-19T04:13:38;4.85;;;2.20;;
77888;SDS011;67082;41.704;44.768;2023-11-19T04:16:07;3.88;;;2.20;;
77888;SDS011;67082;41.704;44.768;2023-11-19T04:18:35;4.00;;;1.88;;
77888;SDS011;67082;41.704;44.768;2023-11-19T04:21:05;3.72;;;2.10;;
77888;SDS011;67082;41.704;44.768;2023-11-19T04:23:34;5.93;;;2.35;;
77888;SDS011;67082;41.704;44.768;2023-11-19T04:26:03;4.65;;;1.80;;
77888;SDS011;67082;41.704;44.768;2023-11-19T04:28:34;7.05;;;1.90;;
77888;SDS011;67082;41.704;44.768;2023-11-19T04:31:03;4.72;;;1.73;;
77888;SDS011;67082;41.704;44.768;2023-11-19T04:33:31;3.85;;;2.17;;
77888;SDS011;67082;41.704;44.768;2023-11-19T04:35:59;4.30;;;2.30;;
77888;SDS011;67082;41.704;44.768;2023-11-19T04:38:29;4.05;;;2.17;;
77888;SDS011;67082;41.704;44.768;2023-11-19T04:40:58;4.50;;;2.03;;
77888;SDS011;67082;41.704;44.768;2023-11-19T04:43:26;6.82;;;1.90;;
77888;SDS011;67082;41.704;44.768;2023-11-19T04:45:54;3.50;;;1.60;;
77888;SDS011;67082;41.704;44.768;2023-11-19T04:48:22;4.85;;;1.90;;
77888;SDS011;67082;41.704;44.768;2023-11-19T04:50:51;3.17;;;1.70;;
77888;SDS011;67082;41.704;44.768;2023-11-19T04:53:19;3.40;;;1.58;;
77888;SDS011;67082;41.704;44.768;2023-11-19T04:55:48;5.13;;;2.00;;
77888;SDS011;67082;41.704;44.768;2023-11-19T04:58:16;5.47;;;2.08;;
77888;SDS011;67082;41.704;44.768;2023-11-19T05:00:44;8.02;;;2.00;;
77888;SDS011;67082;41.704;44.768;2023-11-19T05:03:12;6.38;;;2.28;;
77888;SDS011;67082;41.704;44.768;2023-11-19T05:05:41;5.25;;;2.38;;
77888;SDS011;67082;41.704;44.768;2023-11-19T05:08:08;4.00;;;2.35;;
77888;SDS011;67082;41.704;44.768;2023-11-19T05:10:36;8.25;;;3.67;;
77888;SDS011;67082;41.704;44.768;2023-11-19T05:13:04;10.32;;;4.60;;
77888;SDS011;67082;41.704;44.768;2023-11-19T05:15:33;11.68;;;5.57;;
77888;SDS011;67082;41.704;44.768;2023-11-19T05:18:00;13.93;;;6.07;;
77888;SDS011;67082;41.704;44.768;2023-11-19T05:20:29;14.02;;;6.53;;
77888;SDS011;67082;41.704;44.768;2023-11-19T05:22:56;15.68;;;6.50;;
77888;SDS011;67082;41.704;44.768;2023-11-19T05:25:28;15.52;;;6.00;;
77888;SDS011;67082;41.704;44.768;2023-11-19T05:27:56;16.83;;;6.60;;
77888;SDS011;67082;41.704;44.768;2023-11-19T05:30:26;15.07;;;7.20;;
77888;SDS011;67082;41.704;44.768;2023-11-19T05:32:54;24.17;;;8.75;;
77888;SDS011;67082;41.704;44.768;2023-11-19T05:35:22;19.13;;;8.82;;
77888;SDS011;67082;41.704;44.768;2023-11-19T05:37:50;19.90;;;9.25;;
77888;SDS011;67082;41.704;44.768;2023-11-19T05:40:21;19.60;;;8.55;;
77888;SDS011;67082;41.704;44.768;2023-11-19T05:42:50;15.38;;;8.30;;
77888;SDS011;67082;41.704;44.768;2023-11-19T05:45:19;18.83;;;8.35;;
77888;SDS011;67082;41.704;44.768;2023-11-19T05:47:47;19.40;;;7.93;;
77888;SDS011;67082;41.704;44.768;2023-11-19T05:50:15;18.65;;;8.95;;
77888;SDS011;67082;41.704;44.768;2023-11-19T05:52:43;23.23;;;8.85;;
77888;SDS011;67082;41.704;44.768;2023-11-19T05:55:11;23.50;;;9.15;;
77888;SDS011;67082;41.704;44.768;2023-11-19T05:57:40;17.48;;;8.00;;
77888;SDS011;67082;41.704;44.768;2023-11-19T06:00:12;16.98;;;8.02;;
77888;SDS011;67082;41.704;44.768;2023-11-19T06:02:40;19.92;;;8.45;;
77888;SDS011;67082;41.704;44.768;2023-11-19T06:05:08;19.10;;;8.35;;
77888;SDS011;67082;41.704;44.768;2023-11-19T06:07:39;24.20;;;9.35;;
77888;SDS011;67082;41.704;44.768;2023-11-19T06:10:09;24.15;;;8.90;;
77888;SDS011;67082;41.704;44.768;2023-11-19T06:12:38;20.35;;;10.63;;
77888;SDS011;67082;41.704;44.768;2023-11-19T06:15:09;23.10;;;8.70;;
77888;SDS011;67082;41.704;44.768;2023-11-19T06:17:38;16.73;;;8.82;;
77888;SDS011;67082;41.704;44.768;2023-11-19T06:20:06;19.30;;;8.55;;
77888;SDS011;67082;41.704;44.768;2023-11-19T06:22:35;18.83;;;9.07;;
77888;SDS011;67082;41.704;44.768;2023-11-19T06:25:06;20.20;;;9.05;;
77888;SDS011;67082;41.704;44.768;2023-11-19T06:27:35;20.10;;;9.15;;
77888;SDS011;67082;41.704;44.768;2023-11-19T06:30:03;19.88;;;8.43;;
77888;SDS011;67082;41.704;44.768;2023-11-19T06:32:33;15.25;;;8.27;;
77888;SDS011;67082;41.704;44.768;2023-11-19T06:35:01;20.23;;;9.02;;
77888;SDS011;67082;41.704;44.768;2023-11-19T06:37:31;24.38;;;9.30;;
77888;SDS011;67082;41.704;44.768;2023-11-19T06:39:59;18.90;;;8.85;;
77888;SDS011;67082;41.704;44.768;2023-11-19T06:42:28;18.67;;;9.60;;
77888;SDS011;67082;41.704;44.768;2023-11-19T06:44:57;16.95;;;8.45;;
77888;SDS011;67082;41.704;44.768;2023-11-19T06:47:25;19.52;;;7.93;;
77888;SDS011;67082;41.704;44.768;2023-11-19T06:49:55;19.88;;;7.82;;
77888;SDS011;67082;41.704;44.768;2023-11-19T06:52:23;17.42;;;8.30;;
77888;SDS011;67082;41.704;44.768;2023-11-19T06:54:52;24.48;;;9.77;;
77888;SDS011;67082;41.704;44.768;2023-11-19T06:57:19;19.30;;;8.57;;
77888;SDS011;67082;41.704;44.768;2023-11-19T06:59:48;16.67;;;8.27;;
77888;SDS011;67082;41.704;44.768;2023-11-19T07:02:16;16.40;;;7.55;;
77888;SDS011;67082;41.704;44.768;2023-11-19T07:04:44;22.85;;;7.03;;
77888;SDS011;67082;41.704;44.768;2023-11-19T07:07:12;15.80;;;6.93;;
77888;SDS011;67082;41.704;44.768;2023-11-19T07:09:42;11.68;;;6.57;;
77888;SDS011;67082;41.704;44.768;2023-11-19T07:12:10;17.20;;;6.78;;
77888;SDS011;67082;41.704;44.768;2023-11-19T07:14:40;16.50;;;7.05;;
77888;SDS011;67082;41.704;44.768;2023-11-19T07:17:09;16.85;;;7.43;;
77888;SDS011;67082;41.704;44.768;2023-11-19T07:19:38;13.27;;;7.18;;
77888;SDS011;67082;41.704;44.768;2023-11-19T07:22:06;17.55;;;7.97;;
77888;SDS011;67082;41.704;44.768;2023-11-19T07:24:34;17.88;;;7.97;;
77888;SDS011;67082;41.704;44.768;2023-11-19T07:27:02;18.23;;;7.68;;
77888;SDS011;67082;41.704;44.768;2023-11-19T07:29:32;19.23;;;7.47;;
77888;SDS011;67082;41.704;44.768;2023-11-19T07:32:00;18.00;;;8.70;;
77888;SDS011;67082;41.704;44.768;2023-11-19T07:34:29;23.90;;;10.07;;
77888;SDS011;67082;41.704;44.768;2023-11-19T07:36:58;26.90;;;11.65;;
77888;SDS011;67082;41.704;44.768;2023-11-19T07:39:30;32.17;;;12.35;;
77888;SDS011;67082;41.704;44.768;2023-11-19T07:41:58;77.00;;;22.90;;
77888;SDS011;67082;41.704;44.768;2023-11-19T07:44:26;92.75;;;31.05;;
77888;SDS011;67082;41.704;44.768;2023-11-19T07:46:54;51.22;;;19.42;;
77888;SDS011;67082;41.704;44.768;2023-11-19T07:49:25;37.17;;;15.23;;
77888;SDS011;67082;41.704;44.768;2023-11-19T07:51:54;33.42;;;15.05;;
77888;SDS011;67082;41.704;44.768;2023-11-19T07:54:22;34.50;;;14.75;;
77888;SDS011;67082;41.704;44.768;2023-11-19T07:56:50;39.15;;;15.30;;
77888;SDS011;67082;41.704;44.768;2023-11-19T07:59:19;32.67;;;13.95;;
77888;SDS011;67082;41.704;44.768;2023-11-19T08:01:47;44.03;;;15.38;;
77888;SDS011;67082;41.704;44.768;2023-11-19T08:04:15;41.58;;;15.00;;
77888;SDS011;67082;41.704;44.768;2023-11-19T08:06:44;39.10;;;14.60;;
77888;SDS011;67082;41.704;44.768;2023-11-19T08:09:13;41.20;;;14.95;;
77888;SDS011;67082;41.704;44.768;2023-11-19T08:11:41;31.75;;;14.55;;
77888;SDS011;67082;41.704;44.768;2023-11-19T08:14:10;30.80;;;14.70;;
77888;SDS011;67082;41.704;44.768;2023-11-19T08:16:39;36.40;;;15.13;;
77888;SDS011;67082;41.704;44.768;2023-11-19T08:19:08;30.30;;;15.50;;
77888;SDS011;67082;41.704;44.768;2023-11-19T08:21:36;32.55;;;14.40;;
77888;SDS011;67082;41.704;44.768;2023-11-19T08:24:04;35.97;;;13.48;;
77888;SDS011;67082;41.704;44.768;2023-11-19T08:26:34;30.98;;;13.32;;
77888;SDS011;67082;41.704;44.768;2023-11-19T08:29:02;32.13;;;12.75;;
77888;SDS011;67082;41.704;44.768;2023-11-19T08:31:30;33.40;;;13.65;;
77888;SDS011;67082;41.704;44.768;2023-11-19T08:33:58;31.40;;;13.63;;
77888;SDS011;67082;41.704;44.768;2023-11-19T08:36:26;26.38;;;11.75;;
77888;SDS011;67082;41.704;44.768;2023-11-19T08:38:55;25.40;;;12.18;;
77888;SDS011;67082;41.704;44.768;2023-11-19T08:41:23;34.83;;;13.30;;
77888;SDS011;67082;41.704;44.768;2023-11-19T08:43:53;26.58;;;12.68;;
77888;SDS011;67082;41.704;44.768;2023-11-19T08:46:20;22.77;;;11.32;;
77888;SDS011;67082;41.704;44.768;2023-11-19T08:48:49;23.27;;;10.27;;
77888;SDS011;67082;41.704;44.768;2023-11-19T08:51:17;20.98;;;10.15;;
77888;SDS011;67082;41.704;44.768;2023-11-19T08:53:46;24.45;;;10.10;;
77888;SDS011;67082;41.704;44.768;2023-11-19T08:56:14;27.35;;;11.98;;
77888;SDS011;67082;41.704;44.768;2023-11-19T08:58:42;21.73;;;10.60;;
77888;SDS011;67082;41.704;44.768;2023-11-19T09:01:10;32.45;;;12.57;;
77888;SDS011;67082;41.704;44.768;2023-11-19T09:03:38;34.13;;;14.70;;
77888;SDS011;67082;41.704;44.768;2023-11-19T09:06:07;31.30;;;12.77;;
77888;SDS011;67082;41.704;44.768;2023-11-19T09:08:35;33.42;;;13.82;;
77888;SDS011;67082;41.704;44.768;2023-11-19T09:11:06;36.45;;;14.60;;
77888;SDS011;67082;41.704;44.768;2023-11-19T09:13:36;33.33;;;14.02;;
77888;SDS011;67082;41.704;44.768;2023-11-19T09:16:04;29.45;;;13.68;;
77888;SDS011;67082;41.704;44.768;2023-11-19T09:18:32;27.90;;;14.05;;
77888;SDS011;67082;41.704;44.768;2023-11-19T09:21:00;28.05;;;13.55;;
77888;SDS011;67082;41.704;44.768;2023-11-19T09:23:29;27.48;;;13.40;;
77888;SDS011;67082;41.704;44.768;2023-11-19T09:26:00;27.90;;;13.70;;
77888;SDS011;67082;41.704;44.768;2023-11-19T09:28:28;29.00;;;14.48;;
77888;SDS011;67082;41.704;44.768;2023-11-19T09:30:56;25.42;;;13.30;;
77888;SDS011;67082;41.704;44.768;2023-11-19T09:33:24;30.40;;;14.60;;
77888;SDS011;67082;41.704;44.768;2023-11-19T09:35:53;30.70;;;14.60;;
77888;SDS011;67082;41.704;44.768;2023-11-19T09:38:22;29.20;;;14.38;;
77888;SDS011;67082;41.704;44.768;2023-11-19T09:40:50;32.38;;;14.80;;
77888;SDS011;67082;41.704;44.768;2023-11-19T09:43:18;31.90;;;14.23;;
77888;SDS011;67082;41.704;44.768;2023-11-19T09:45:48;35.38;;;14.88;;
77888;SDS011;67082;41.704;44.768;2023-11-19T09:48:20;32.10;;;15.10;;
77888;SDS011;67082;41.704;44.768;2023-11-19T09:50:48;30.98;;;14.57;;
77888;SDS011;67082;41.704;44.768;2023-11-19T09:53:18;39.20;;;15.55;;
77888;SDS011;67082;41.704;44.768;2023-11-19T09:55:48;40.50;;;17.48;;
77888;SDS011;67082;41.704;44.768;2023-11-19T09:58:16;32.17;;;17.23;;
77888;SDS011;67082;41.704;44.768;2023-11-19T10:00:44;48.97;;;19.52;;
77888;SDS011;67082;41.704;44.768;2023-11-19T10:03:26;36.35;;;17.75;;
77888;SDS011;67082;41.704;44.768;2023-11-19T10:05:57;37.63;;;18.70;;
77888;SDS011;67082;41.704;44.768;2023-11-19T10:08:25;40.28;;;18.60;;
77888;SDS011;67082;41.704;44.768;2023-11-19T10:10:54;38.13;;;18.10;;
77888;SDS011;67082;41.704;44.768;2023-11-19T10:13:28;37.15;;;18.35;;
77888;SDS011;67082;41.704;44.768;2023-11-19T10:15:58;40.58;;;18.55;;
77888;SDS011;67082;41.704;44.768;2023-11-19T10:18:31;35.92;;;18.63;;
77888;SDS011;67082;41.704;44.768;2023-11-19T10:21:07;36.90;;;18.13;;
77888;SDS011;67082;41.704;44.768;2023-11-19T10:24:09;40.13;;;18.55;;
77888;SDS011;67082;41.704;44.768;2023-11-19T10:26:29;36.05;;;18.38;;
77888;SDS011;67082;41.704;44.768;2023-11-19T10:28:58;37.95;;;17.23;;
77888;SDS011;67082;41.704;44.768;2023-11-19T10:37:39;33.40;;;17.65;;
77888;SDS011;67082;41.704;44.768;2023-11-19T10:47:15;37.13;;;17.83;;
77888;SDS011;67082;41.704;44.768;2023-11-19T10:50:05;34.33;;;17.15;;
77888;SDS011;67082;41.704;44.768;2023-11-19T10:52:36;39.17;;;16.83;;
77888;SDS011;67082;41.704;44.768;2023-11-19T10:55:07;34.60;;;17.65;;
77888;SDS011;67082;41.704;44.768;2023-11-19T10:57:39;36.10;;;17.23;;
77888;SDS011;67082;41.704;44.768;2023-11-19T11:00:11;35.85;;;17.27;;
77888;SDS011;67082;41.704;44.768;2023-11-19T11:02:47;29.10;;;15.67;;
77888;SDS011;67082;41.704;44.768;2023-11-19T11:05:24;34.80;;;15.70;;
77888;SDS011;67082;41.704;44.768;2023-11-19T11:07:55;20.10;;;11.00;;
77888;SDS011;67082;41.704;44.768;2023-11-19T11:10:25;18.15;;;10.00;;
77888;SDS011;67082;41.704;44.768;2023-11-19T11:12:54;13.75;;;7.50;;
77888;SDS011;67082;41.704;44.768;2023-11-19T11:15:27;12.15;;;7.35;;
77888;SDS011;67082;41.704;44.768;2023-11-19T11:18:00;12.68;;;7.18;;
77888;SDS011;67082;41.704;44.768;2023-11-19T11:20:30;15.30;;;7.57;;
77888;SDS011;67082;41.704;44.768;2023-11-19T11:28:48;16.67;;;7.53;;
77888;SDS011;67082;41.704;44.768;2023-11-19T11:34:20;18.83;;;9.55;;
77888;SDS011;67082;41.704;44.768;2023-11-19T11:37:16;18.88;;;9.13;;
77888;SDS011;67082;41.704;44.768;2023-11-19T11:39:47;20.25;;;9.70;;
77888;SDS011;67082;41.704;44.768;2023-11-19T11:45:08;24.17;;;11.52;;
77888;SDS011;67082;41.704;44.768;2023-11-19T11:50:16;28.00;;;11.23;;
77888;SDS011;67082;41.704;44.768;2023-11-19T11:55:34;24.33;;;11.30;;
77888;SDS011;67082;41.704;44.768;2023-11-19T11:58:07;24.58;;;10.90;;
77888;SDS011;67082;41.704;44.768;2023-11-19T12:00:40;28.20;;;13.10;;
77888;SDS011;67082;41.704;44.768;2023-11-19T12:03:12;24.45;;;12.23;;
77888;SDS011;67082;41.704;44.768;2023-11-19T12:05:46;26.77;;;12.75;;
77888;SDS011;67082;41.704;44.768;2023-11-19T12:08:16;23.83;;;11.10;;
77888;SDS011;67082;41.704;44.768;2023-11-19T12:10:54;25.88;;;11.60;;
77888;SDS011;67082;41.704;44.768;2023-11-19T12:13:29;20.33;;;10.95;;
77888;SDS011;67082;41.704;44.768;2023-11-19T12:16:14;21.65;;;11.38;;
77888;SDS011;67082;41.704;44.768;2023-11-19T12:18:43;24.58;;;11.25;;
77888;SDS011;67082;41.704;44.768;2023-11-19T12:21:26;18.30;;;10.95;;
77888;SDS011;67082;41.704;44.768;2023-11-19T12:23:57;23.60;;;10.88;;
77888;SDS011;67082;41.704;44.768;2023-11-19T12:26:35;23.13;;;10.60;;
77888;SDS011;67082;41.704;44.768;2023-11-19T12:29:04;23.25;;;10.52;;
77888;SDS011;67082;41.704;44.768;2023-11-19T12:31:36;26.70;;;10.18;;
77888;SDS011;67082;41.704;44.768;2023-11-19T12:34:07;21.17;;;9.70;;
77888;SDS011;67082;41.704;44.768;2023-11-19T12:36:40;19.70;;;9.50;;
77888;SDS011;67082;41.704;44.768;2023-11-19T12:39:09;21.17;;;9.70;;
77888;SDS011;67082;41.704;44.768;2023-11-19T12:41:53;21.35;;;9.35;;
77888;SDS011;67082;41.704;44.768;2023-11-19T12:44:21;19.27;;;10.48;;
77888;SDS011;67082;41.704;44.768;2023-11-19T12:47:00;19.55;;;10.75;;
77888;SDS011;67082;41.704;44.768;2023-11-19T12:49:29;24.38;;;10.70;;
77888;SDS011;67082;41.704;44.768;2023-11-19T12:51:57;21.63;;;11.25;;
77888;SDS011;67082;41.704;44.768;2023-11-19T12:54:35;26.25;;;12.18;;
77888;SDS011;67082;41.704;44.768;2023-11-19T12:57:04;45.60;;;25.45;;
77888;SDS011;67082;41.704;44.768;2023-11-19T12:59:33;131.07;;;65.47;;
77888;SDS011;67082;41.704;44.768;2023-11-19T13:02:01;32.80;;;18.13;;
77888;SDS011;67082;41.704;44.768;2023-11-19T13:04:33;21.65;;;12.15;;
77888;SDS011;67082;41.704;44.768;2023-11-19T13:07:02;26.70;;;13.77;;
77888;SDS011;67082;41.704;44.768;2023-11-19T13:09:33;24.02;;;12.65;;
77888;SDS011;67082;41.704;44.768;2023-11-19T13:12:11;43.50;;;24.67;;
77888;SDS011;67082;41.704;44.768;2023-11-19T13:14:42;67.47;;;29.17;;
77888;SDS011;67082;41.704;44.768;2023-11-19T13:17:15;46.00;;;26.17;;
77888;SDS011;67082;41.704;44.768;2023-11-19T13:19:43;103.53;;;46.80;;
77888;SDS011;67082;41.704;44.768;2023-11-19T13:22:16;100.82;;;47.88;;
77888;SDS011;67082;41.704;44.768;2023-11-19T13:24:44;95.32;;;42.45;;
77888;SDS011;67082;41.704;44.768;2023-11-19T13:27:14;77.35;;;33.20;;
77888;SDS011;67082;41.704;44.768;2023-11-19T13:29:41;72.97;;;32.85;;
77888;SDS011;67082;41.704;44.768;2023-11-19T13:32:10;71.30;;;32.30;;
77888;SDS011;67082;41.704;44.768;2023-11-19T13:34:38;79.60;;;36.60;;
77888;SDS011;67082;41.704;44.768;2023-11-19T13:37:07;73.68;;;33.22;;
77888;SDS011;67082;41.704;44.768;2023-11-19T13:39:35;47.67;;;23.25;;
77888;SDS011;67082;41.704;44.768;2023-11-19T13:42:05;37.95;;;16.45;;
77888;SDS011;67082;41.704;44.768;2023-11-19T13:44:35;26.48;;;13.07;;
77888;SDS011;67082;41.704;44.768;2023-11-19T13:47:04;29.52;;;13.13;;
77888;SDS011;67082;41.704;44.768;2023-11-19T13:49:32;28.98;;;12.98;;
77888;SDS011;67082;41.704;44.768;2023-11-19T13:52:01;25.52;;;11.93;;
77888;SDS011;67082;41.704;44.768;2023-11-19T13:54:29;27.85;;;14.18;;
77888;SDS011;67082;41.704;44.768;2023-11-19T13:56:58;24.10;;;13.05;;
77888;SDS011;67082;41.704;44.768;2023-11-19T13:59:26;23.25;;;11.68;;
77888;SDS011;67082;41.704;44.768;2023-11-19T14:01:55;22.30;;;11.35;;
77888;SDS011;67082;41.704;44.768;2023-11-19T14:04:23;27.80;;;13.77;;
77888;SDS011;67082;41.704;44.768;2023-11-19T14:06:51;32.08;;;15.15;;
77888;SDS011;67082;41.704;44.768;2023-11-19T14:09:22;37.50;;;16.83;;
77888;SDS011;67082;41.704;44.768;2023-11-19T14:11:50;30.35;;;14.90;;
77888;SDS011;67082;41.704;44.768;2023-11-19T14:14:18;24.83;;;13.48;;
77888;SDS011;67082;41.704;44.768;2023-11-19T14:16:47;27.00;;;13.82;;
77888;SDS011;67082;41.704;44.768;2023-11-19T14:19:15;47.45;;;24.80;;
77888;SDS011;67082;41.704;44.768;2023-11-19T14:21:43;324.90;;;182.52;;
77888;SDS011;67082;41.704;44.768;2023-11-19T14:24:12;165.77;;;80.85;;
77888;SDS011;67082;41.704;44.768;2023-11-19T14:26:41;193.98;;;100.28;;
77888;SDS011;67082;41.704;44.768;2023-11-19T14:29:09;74.13;;;36.05;;
77888;SDS011;67082;41.704;44.768;2023-11-19T14:31:37;49.35;;;25.45;;
77888;SDS011;67082;41.704;44.768;2023-11-19T14:34:05;34.67;;;16.85;;
77888;SDS011;67082;41.704;44.768;2023-11-19T14:36:33;195.43;;;107.93;;
77888;SDS011;67082;41.704;44.768;2023-11-19T14:39:02;145.63;;;77.22;;
77888;SDS011;67082;41.704;44.768;2023-11-19T14:41:31;59.47;;;27.55;;
77888;SDS011;67082;41.704;44.768;2023-11-19T14:43:59;60.83;;;28.55;;
77888;SDS011;67082;41.704;44.768;2023-11-19T14:46:27;290.63;;;141.82;;
77888;SDS011;67082;41.704;44.768;2023-11-19T14:48:56;641.00;;;344.30;;
77888;SDS011;67082;41.704;44.768;2023-11-19T14:51:24;322.70;;;152.90;;
77888;SDS011;67082;41.704;44.768;2023-11-19T14:53:52;165.68;;;83.90;;
77888;SDS011;67082;41.704;44.768;2023-11-19T14:56:20;63.35;;;30.50;;
77888;SDS011;67082;41.704;44.768;2023-11-19T14:58:48;51.10;;;26.17;;
77888;SDS011;67082;41.704;44.768;2023-11-19T15:01:18;38.13;;;17.48;;
77888;SDS011;67082;41.704;44.768;2023-11-19T15:03:47;35.47;;;16.40;;
77888;SDS011;67082;41.704;44.768;2023-11-19T15:06:18;31.85;;;14.68;;